sensor_id;sensor_type;location;lat;lon;timestamp;temperature;humidity
19880;DHT22;10102;50.828;4.416;2024-03-22T00:01:53;14.20;99.90
19880;DHT22;10102;50.828;4.416;2024-03-22T00:04:19;14.20;99.90
19880;DHT22;10102;50.828;4.416;2024-03-22T00:06:47;14.20;99.90
19880;DHT22;10102;50.828;4.416;2024-03-22T00:09:14;14.20;99.90
19880;DHT22;10102;50.828;4.416;2024-03-22T00:11:40;14.00;99.90
19880;DHT22;10102;50.828;4.416;2024-03-22T00:14:06;14.70;99.90
19880;DHT22;10102;50.828;4.416;2024-03-22T00:16:32;14.30;99.90
19880;DHT22;10102;50.828;4.416;2024-03-22T00:18:58;14.40;99.90
19880;DHT22;10102;50.828;4.416;2024-03-22T00:23:50;14.30;99.90
19880;DHT22;10102;50.828;4.416;2024-03-22T00:26:16;14.30;99.90
19880;DHT22;10102;50.828;4.416;2024-03-22T00:28:43;14.30;99.90
19880;DHT22;10102;50.828;4.416;2024-03-22T00:31:09;14.40;99.90
19880;DHT22;10102;50.828;4.416;2024-03-22T00:33:35;14.00;99.90
19880;DHT22;10102;50.828;4.416;2024-03-22T00:36:00;14.30;99.90
19880;DHT22;10102;50.828;4.416;2024-03-22T00:38:26;14.30;99.90
19880;DHT22;10102;50.828;4.416;2024-03-22T00:40:52;14.30;99.90
19880;DHT22;10102;50.828;4.416;2024-03-22T00:43:20;14.30;99.90
19880;DHT22;10102;50.828;4.416;2024-03-22T00:45:45;14.20;99.90
19880;DHT22;10102;50.828;4.416;2024-03-22T00:50:37;14.40;99.90
19880;DHT22;10102;50.828;4.416;2024-03-22T00:53:03;14.30;99.90
19880;DHT22;10102;50.828;4.416;2024-03-22T00:55:31;14.30;99.90
19880;DHT22;10102;50.828;4.416;2024-03-22T00:57:57;14.30;99.90
19880;DHT22;10102;50.828;4.416;2024-03-22T01:02:49;14.30;99.90
19880;DHT22;10102;50.828;4.416;2024-03-22T01:05:16;14.30;99.90
19880;DHT22;10102;50.828;4.416;2024-03-22T01:07:42;14.30;99.90
19880;DHT22;10102;50.828;4.416;2024-03-22T01:10:08;14.20;99.90
19880;DHT22;10102;50.828;4.416;2024-03-22T01:12:34;14.20;99.90
19880;DHT22;10102;50.828;4.416;2024-03-22T01:15:00;14.10;99.90
19880;DHT22;10102;50.828;4.416;2024-03-22T01:17:26;14.00;99.90
19880;DHT22;10102;50.828;4.416;2024-03-22T01:19:52;14.10;99.90
19880;DHT22;10102;50.828;4.416;2024-03-22T01:22:18;14.00;99.90
19880;DHT22;10102;50.828;4.416;2024-03-22T01:24:44;14.00;99.90
19880;DHT22;10102;50.828;4.416;2024-03-22T01:27:10;14.00;99.90
19880;DHT22;10102;50.828;4.416;2024-03-22T01:29:36;14.00;99.90
19880;DHT22;10102;50.828;4.416;2024-03-22T01:32:02;13.80;99.90
19880;DHT22;10102;50.828;4.416;2024-03-22T01:34:28;13.60;99.90
19880;DHT22;10102;50.828;4.416;2024-03-22T01:36:53;13.60;99.90
19880;DHT22;10102;50.828;4.416;2024-03-22T01:39:21;13.50;99.90
19880;DHT22;10102;50.828;4.416;2024-03-22T01:41:55;13.40;99.90
19880;DHT22;10102;50.828;4.416;2024-03-22T01:44:27;13.50;99.90
19880;DHT22;10102;50.828;4.416;2024-03-22T01:46:53;13.40;99.90
19880;DHT22;10102;50.828;4.416;2024-03-22T01:49:19;13.60;99.90
19880;DHT22;10102;50.828;4.416;2024-03-22T01:51:45;13.60;99.90
19880;DHT22;10102;50.828;4.416;2024-03-22T01:54:10;13.70;99.90
19880;DHT22;10102;50.828;4.416;2024-03-22T01:56:37;13.60;99.90
19880;DHT22;10102;50.828;4.416;2024-03-22T01:59:04;13.50;99.90
19880;DHT22;10102;50.828;4.416;2024-03-22T02:01:31;13.50;99.90
19880;DHT22;10102;50.828;4.416;2024-03-22T02:03:57;13.50;99.90
19880;DHT22;10102;50.828;4.416;2024-03-22T02:06:22;13.40;99.90
19880;DHT22;10102;50.828;4.416;2024-03-22T02:08:48;13.30;99.90
19880;DHT22;10102;50.828;4.416;2024-03-22T02:11:14;13.30;99.90
19880;DHT22;10102;50.828;4.416;2024-03-22T02:13:39;13.20;99.90
19880;DHT22;10102;50.828;4.416;2024-03-22T02:16:05;13.30;99.90
19880;DHT22;10102;50.828;4.416;2024-03-22T02:18:31;13.20;99.90
19880;DHT22;10102;50.828;4.416;2024-03-22T02:25:58;13.20;99.90
19880;DHT22;10102;50.828;4.416;2024-03-22T02:28:23;13.10;99.90
19880;DHT22;10102;50.828;4.416;2024-03-22T02:30:49;13.00;99.90
19880;DHT22;10102;50.828;4.416;2024-03-22T02:33:15;13.10;99.90
19880;DHT22;10102;50.828;4.416;2024-03-22T02:35:40;12.90;99.90
19880;DHT22;10102;50.828;4.416;2024-03-22T02:38:06;13.10;99.90
19880;DHT22;10102;50.828;4.416;2024-03-22T02:40:32;13.30;99.90
19880;DHT22;10102;50.828;4.416;2024-03-22T02:42:57;13.30;99.90
19880;DHT22;10102;50.828;4.416;2024-03-22T02:45:23;13.00;99.90
19880;DHT22;10102;50.828;4.416;2024-03-22T02:47:49;13.20;99.90
19880;DHT22;10102;50.828;4.416;2024-03-22T02:50:14;13.20;99.90
19880;DHT22;10102;50.828;4.416;2024-03-22T02:52:40;13.10;99.90
19880;DHT22;10102;50.828;4.416;2024-03-22T02:55:06;13.20;99.90
19880;DHT22;10102;50.828;4.416;2024-03-22T02:57:31;13.20;99.90
19880;DHT22;10102;50.828;4.416;2024-03-22T03:00:00;13.60;99.90
19880;DHT22;10102;50.828;4.416;2024-03-22T03:02:25;13.30;99.90
19880;DHT22;10102;50.828;4.416;2024-03-22T03:04:51;13.20;99.90
19880;DHT22;10102;50.828;4.416;2024-03-22T03:07:17;13.20;99.90
19880;DHT22;10102;50.828;4.416;2024-03-22T03:09:42;13.10;99.90
19880;DHT22;10102;50.828;4.416;2024-03-22T03:12:08;13.40;99.90
19880;DHT22;10102;50.828;4.416;2024-03-22T03:14:34;13.30;99.90
19880;DHT22;10102;50.828;4.416;2024-03-22T03:24:17;13.20;99.90
19880;DHT22;10102;50.828;4.416;2024-03-22T03:26:43;13.30;99.90
19880;DHT22;10102;50.828;4.416;2024-03-22T03:29:09;13.30;99.90
19880;DHT22;10102;50.828;4.416;2024-03-22T03:31:35;13.30;99.90
19880;DHT22;10102;50.828;4.416;2024-03-22T03:34:01;13.30;99.90
19880;DHT22;10102;50.828;4.416;2024-03-22T03:38:52;13.10;99.90
19880;DHT22;10102;50.828;4.416;2024-03-22T03:41:18;13.00;99.90
19880;DHT22;10102;50.828;4.416;2024-03-22T03:43:44;12.70;99.90
19880;DHT22;10102;50.828;4.416;2024-03-22T03:46:10;13.00;99.90
19880;DHT22;10102;50.828;4.416;2024-03-22T03:48:36;13.30;99.90
19880;DHT22;10102;50.828;4.416;2024-03-22T03:51:02;13.00;99.90
19880;DHT22;10102;50.828;4.416;2024-03-22T03:53:29;13.10;99.90
19880;DHT22;10102;50.828;4.416;2024-03-22T03:55:55;13.10;99.90
19880;DHT22;10102;50.828;4.416;2024-03-22T03:58:21;13.20;99.90
19880;DHT22;10102;50.828;4.416;2024-03-22T04:00:47;13.00;99.90
19880;DHT22;10102;50.828;4.416;2024-03-22T04:03:13;13.00;99.90
19880;DHT22;10102;50.828;4.416;2024-03-22T04:08:05;13.00;99.90
19880;DHT22;10102;50.828;4.416;2024-03-22T04:10:31;12.90;99.90
19880;DHT22;10102;50.828;4.416;2024-03-22T04:12:57;12.90;99.90
19880;DHT22;10102;50.828;4.416;2024-03-22T04:15:23;13.00;99.90
19880;DHT22;10102;50.828;4.416;2024-03-22T04:17:49;13.10;99.90
19880;DHT22;10102;50.828;4.416;2024-03-22T04:20:15;13.00;99.90
19880;DHT22;10102;50.828;4.416;2024-03-22T04:22:41;13.00;99.90
19880;DHT22;10102;50.828;4.416;2024-03-22T04:25:06;13.40;99.90
19880;DHT22;10102;50.828;4.416;2024-03-22T04:27:36;12.90;99.90
19880;DHT22;10102;50.828;4.416;2024-03-22T04:30:02;12.60;99.90
19880;DHT22;10102;50.828;4.416;2024-03-22T04:32:28;13.10;99.90
19880;DHT22;10102;50.828;4.416;2024-03-22T04:34:53;12.90;99.90
19880;DHT22;10102;50.828;4.416;2024-03-22T04:37:20;12.80;99.90
19880;DHT22;10102;50.828;4.416;2024-03-22T04:39:46;12.80;99.90
19880;DHT22;10102;50.828;4.416;2024-03-22T04:42:12;12.70;99.90
19880;DHT22;10102;50.828;4.416;2024-03-22T04:44:37;12.70;99.90
19880;DHT22;10102;50.828;4.416;2024-03-22T04:47:03;12.40;99.90
19880;DHT22;10102;50.828;4.416;2024-03-22T04:49:29;12.80;99.90
19880;DHT22;10102;50.828;4.416;2024-03-22T04:51:55;12.90;99.90
19880;DHT22;10102;50.828;4.416;2024-03-22T04:59:14;12.70;99.90
19880;DHT22;10102;50.828;4.416;2024-03-22T05:01:39;12.70;99.90
19880;DHT22;10102;50.828;4.416;2024-03-22T05:04:05;12.60;99.90
19880;DHT22;10102;50.828;4.416;2024-03-22T05:06:31;12.80;99.90
19880;DHT22;10102;50.828;4.416;2024-03-22T05:08:56;12.70;99.90
19880;DHT22;10102;50.828;4.416;2024-03-22T05:11:22;12.80;99.90
19880;DHT22;10102;50.828;4.416;2024-03-22T05:13:49;13.20;99.90
19880;DHT22;10102;50.828;4.416;2024-03-22T05:16:15;12.60;99.90
19880;DHT22;10102;50.828;4.416;2024-03-22T05:21:07;12.70;99.90
19880;DHT22;10102;50.828;4.416;2024-03-22T05:23:32;12.60;99.90
19880;DHT22;10102;50.828;4.416;2024-03-22T05:25:58;12.30;99.90
19880;DHT22;10102;50.828;4.416;2024-03-22T05:28:25;12.50;99.90
19880;DHT22;10102;50.828;4.416;2024-03-22T05:30:51;12.40;99.90
19880;DHT22;10102;50.828;4.416;2024-03-22T05:35:43;12.30;99.90
19880;DHT22;10102;50.828;4.416;2024-03-22T05:40:37;12.30;99.90
19880;DHT22;10102;50.828;4.416;2024-03-22T05:43:06;12.30;99.90
19880;DHT22;10102;50.828;4.416;2024-03-22T05:45:31;12.40;99.90
19880;DHT22;10102;50.828;4.416;2024-03-22T05:47:57;12.40;99.90
19880;DHT22;10102;50.828;4.416;2024-03-22T05:50:23;12.40;99.90
19880;DHT22;10102;50.828;4.416;2024-03-22T05:55:14;12.40;99.90
19880;DHT22;10102;50.828;4.416;2024-03-22T05:57:40;12.50;99.90
19880;DHT22;10102;50.828;4.416;2024-03-22T06:00:06;12.60;99.90
19880;DHT22;10102;50.828;4.416;2024-03-22T06:02:35;11.90;99.90
19880;DHT22;10102;50.828;4.416;2024-03-22T06:05:01;12.40;99.90
19880;DHT22;10102;50.828;4.416;2024-03-22T06:07:26;12.20;99.90
19880;DHT22;10102;50.828;4.416;2024-03-22T06:09:52;11.80;99.90
19880;DHT22;10102;50.828;4.416;2024-03-22T06:12:18;12.00;99.90
19880;DHT22;10102;50.828;4.416;2024-03-22T06:14:44;12.00;99.90
19880;DHT22;10102;50.828;4.416;2024-03-22T06:17:10;12.10;99.90
19880;DHT22;10102;50.828;4.416;2024-03-22T06:19:37;12.00;99.90
19880;DHT22;10102;50.828;4.416;2024-03-22T06:22:04;12.00;99.90
19880;DHT22;10102;50.828;4.416;2024-03-22T06:24:30;12.30;99.90
19880;DHT22;10102;50.828;4.416;2024-03-22T06:26:55;12.10;99.90
19880;DHT22;10102;50.828;4.416;2024-03-22T06:29:21;12.20;99.90
19880;DHT22;10102;50.828;4.416;2024-03-22T06:31:47;12.40;99.90
19880;DHT22;10102;50.828;4.416;2024-03-22T06:34:13;12.10;99.90
19880;DHT22;10102;50.828;4.416;2024-03-22T06:36:38;12.10;99.90
19880;DHT22;10102;50.828;4.416;2024-03-22T06:39:04;12.30;99.90
19880;DHT22;10102;50.828;4.416;2024-03-22T06:41:34;12.70;99.90
19880;DHT22;10102;50.828;4.416;2024-03-22T06:44:00;12.20;99.90
19880;DHT22;10102;50.828;4.416;2024-03-22T06:46:27;12.40;99.90
19880;DHT22;10102;50.828;4.416;2024-03-22T06:48:53;12.40;99.90
19880;DHT22;10102;50.828;4.416;2024-03-22T06:51:20;12.40;99.90
19880;DHT22;10102;50.828;4.416;2024-03-22T06:53:45;12.50;99.90
19880;DHT22;10102;50.828;4.416;2024-03-22T06:56:13;12.40;99.90
19880;DHT22;10102;50.828;4.416;2024-03-22T06:58:39;12.40;99.90
19880;DHT22;10102;50.828;4.416;2024-03-22T07:01:05;12.30;99.90
19880;DHT22;10102;50.828;4.416;2024-03-22T07:03:31;12.30;99.90
19880;DHT22;10102;50.828;4.416;2024-03-22T07:08:29;12.30;99.90
19880;DHT22;10102;50.828;4.416;2024-03-22T07:10:55;12.30;99.90
19880;DHT22;10102;50.828;4.416;2024-03-22T07:13:21;12.30;99.90
19880;DHT22;10102;50.828;4.416;2024-03-22T07:15:47;12.40;99.90
19880;DHT22;10102;50.828;4.416;2024-03-22T07:18:13;12.70;99.90
19880;DHT22;10102;50.828;4.416;2024-03-22T07:20:39;12.20;99.90
19880;DHT22;10102;50.828;4.416;2024-03-22T07:23:05;12.10;99.90
19880;DHT22;10102;50.828;4.416;2024-03-22T07:25:32;11.80;99.90
19880;DHT22;10102;50.828;4.416;2024-03-22T07:27:57;12.10;99.90
19880;DHT22;10102;50.828;4.416;2024-03-22T07:30:25;11.70;99.90
19880;DHT22;10102;50.828;4.416;2024-03-22T07:32:50;12.20;99.90
19880;DHT22;10102;50.828;4.416;2024-03-22T07:35:22;12.40;99.90
19880;DHT22;10102;50.828;4.416;2024-03-22T07:37:54;12.10;99.90
19880;DHT22;10102;50.828;4.416;2024-03-22T07:40:20;12.80;99.90
19880;DHT22;10102;50.828;4.416;2024-03-22T07:42:45;12.30;99.90
19880;DHT22;10102;50.828;4.416;2024-03-22T07:45:11;12.40;99.90
19880;DHT22;10102;50.828;4.416;2024-03-22T07:47:44;12.70;99.90
19880;DHT22;10102;50.828;4.416;2024-03-22T07:50:11;12.30;99.90
19880;DHT22;10102;50.828;4.416;2024-03-22T07:52:37;12.60;99.90
19880;DHT22;10102;50.828;4.416;2024-03-22T07:55:02;12.60;99.90
19880;DHT22;10102;50.828;4.416;2024-03-22T07:57:29;12.50;99.90
19880;DHT22;10102;50.828;4.416;2024-03-22T07:59:57;12.50;99.90
19880;DHT22;10102;50.828;4.416;2024-03-22T08:02:23;12.60;99.90
19880;DHT22;10102;50.828;4.416;2024-03-22T08:04:49;12.50;99.90
19880;DHT22;10102;50.828;4.416;2024-03-22T08:09:41;12.60;99.90
19880;DHT22;10102;50.828;4.416;2024-03-22T08:12:07;12.50;99.90
19880;DHT22;10102;50.828;4.416;2024-03-22T08:14:33;12.50;99.90
19880;DHT22;10102;50.828;4.416;2024-03-22T08:19:24;12.50;99.90
19880;DHT22;10102;50.828;4.416;2024-03-22T08:21:50;12.60;99.90
19880;DHT22;10102;50.828;4.416;2024-03-22T08:24:18;12.40;99.90
19880;DHT22;10102;50.828;4.416;2024-03-22T08:26:44;12.70;99.90
19880;DHT22;10102;50.828;4.416;2024-03-22T08:29:15;12.70;99.90
19880;DHT22;10102;50.828;4.416;2024-03-22T08:34:08;12.90;99.90
19880;DHT22;10102;50.828;4.416;2024-03-22T08:36:34;12.50;99.90
19880;DHT22;10102;50.828;4.416;2024-03-22T08:39:00;12.60;99.90
19880;DHT22;10102;50.828;4.416;2024-03-22T08:41:26;12.70;99.90
19880;DHT22;10102;50.828;4.416;2024-03-22T08:43:53;12.60;99.90
19880;DHT22;10102;50.828;4.416;2024-03-22T08:46:18;12.50;99.90
19880;DHT22;10102;50.828;4.416;2024-03-22T08:48:46;12.70;99.90
19880;DHT22;10102;50.828;4.416;2024-03-22T08:51:12;12.90;99.90
19880;DHT22;10102;50.828;4.416;2024-03-22T08:53:38;12.90;99.90
19880;DHT22;10102;50.828;4.416;2024-03-22T08:56:04;12.90;99.90
19880;DHT22;10102;50.828;4.416;2024-03-22T08:58:29;12.90;99.90
19880;DHT22;10102;50.828;4.416;2024-03-22T09:00:55;13.00;99.90
19880;DHT22;10102;50.828;4.416;2024-03-22T09:05:47;12.90;99.90
19880;DHT22;10102;50.828;4.416;2024-03-22T09:08:13;13.00;99.90
19880;DHT22;10102;50.828;4.416;2024-03-22T09:10:39;13.20;99.90
19880;DHT22;10102;50.828;4.416;2024-03-22T09:13:04;13.20;99.90
19880;DHT22;10102;50.828;4.416;2024-03-22T09:17:56;13.30;99.90
19880;DHT22;10102;50.828;4.416;2024-03-22T09:20:22;13.50;99.90
19880;DHT22;10102;50.828;4.416;2024-03-22T09:22:48;13.60;99.90
19880;DHT22;10102;50.828;4.416;2024-03-22T09:25:14;13.50;99.90
19880;DHT22;10102;50.828;4.416;2024-03-22T09:27:40;13.70;99.90
19880;DHT22;10102;50.828;4.416;2024-03-22T09:30:06;14.00;99.90
19880;DHT22;10102;50.828;4.416;2024-03-22T09:32:32;13.70;99.90
19880;DHT22;10102;50.828;4.416;2024-03-22T09:34:57;13.80;99.90
19880;DHT22;10102;50.828;4.416;2024-03-22T09:37:23;14.00;99.90
19880;DHT22;10102;50.828;4.416;2024-03-22T09:39:49;13.90;99.90
19880;DHT22;10102;50.828;4.416;2024-03-22T09:42:16;13.80;99.90
19880;DHT22;10102;50.828;4.416;2024-03-22T09:44:49;13.60;99.90
19880;DHT22;10102;50.828;4.416;2024-03-22T09:49:43;13.70;99.90
19880;DHT22;10102;50.828;4.416;2024-03-22T09:52:20;14.10;99.90
19880;DHT22;10102;50.828;4.416;2024-03-22T09:54:46;13.90;99.90
19880;DHT22;10102;50.828;4.416;2024-03-22T09:57:15;14.10;99.90
19880;DHT22;10102;50.828;4.416;2024-03-22T09:59:42;14.00;99.90
19880;DHT22;10102;50.828;4.416;2024-03-22T10:02:11;13.80;99.90
19880;DHT22;10102;50.828;4.416;2024-03-22T10:04:38;14.00;99.90
19880;DHT22;10102;50.828;4.416;2024-03-22T10:07:03;14.00;99.90
19880;DHT22;10102;50.828;4.416;2024-03-22T10:11:56;14.00;99.90
19880;DHT22;10102;50.828;4.416;2024-03-22T10:14:22;14.10;99.90
19880;DHT22;10102;50.828;4.416;2024-03-22T10:16:53;14.30;99.90
19880;DHT22;10102;50.828;4.416;2024-03-22T10:19:22;14.60;99.90
19880;DHT22;10102;50.828;4.416;2024-03-22T10:22:00;14.40;99.90
19880;DHT22;10102;50.828;4.416;2024-03-22T10:24:25;14.30;99.90
19880;DHT22;10102;50.828;4.416;2024-03-22T10:26:51;14.60;99.90
19880;DHT22;10102;50.828;4.416;2024-03-22T10:29:17;14.00;99.90
19880;DHT22;10102;50.828;4.416;2024-03-22T10:31:45;14.20;99.90
19880;DHT22;10102;50.828;4.416;2024-03-22T10:34:13;13.90;99.90
19880;DHT22;10102;50.828;4.416;2024-03-22T10:36:39;14.20;99.90
19880;DHT22;10102;50.828;4.416;2024-03-22T10:39:07;13.90;99.90
19880;DHT22;10102;50.828;4.416;2024-03-22T10:41:35;14.00;99.90
19880;DHT22;10102;50.828;4.416;2024-03-22T10:44:01;13.90;99.90
19880;DHT22;10102;50.828;4.416;2024-03-22T10:46:30;14.20;99.90
19880;DHT22;10102;50.828;4.416;2024-03-22T10:48:57;14.50;99.90
19880;DHT22;10102;50.828;4.416;2024-03-22T10:51:26;14.20;99.90
19880;DHT22;10102;50.828;4.416;2024-03-22T10:53:54;14.40;99.90
19880;DHT22;10102;50.828;4.416;2024-03-22T10:56:22;14.40;99.90
19880;DHT22;10102;50.828;4.416;2024-03-22T11:01:25;14.10;99.90
19880;DHT22;10102;50.828;4.416;2024-03-22T11:04:02;14.30;99.90
19880;DHT22;10102;50.828;4.416;2024-03-22T11:06:30;14.20;99.90
19880;DHT22;10102;50.828;4.416;2024-03-22T11:08:59;14.30;99.90
19880;DHT22;10102;50.828;4.416;2024-03-22T11:11:28;14.10;99.90
19880;DHT22;10102;50.828;4.416;2024-03-22T11:13:54;14.70;99.90
19880;DHT22;10102;50.828;4.416;2024-03-22T11:18:47;14.40;99.90
19880;DHT22;10102;50.828;4.416;2024-03-22T11:21:17;14.50;99.90
19880;DHT22;10102;50.828;4.416;2024-03-22T11:23:46;14.30;99.90
19880;DHT22;10102;50.828;4.416;2024-03-22T11:26:12;14.10;99.90
19880;DHT22;10102;50.828;4.416;2024-03-22T11:28:42;14.20;99.90
19880;DHT22;10102;50.828;4.416;2024-03-22T11:33:34;14.60;99.90
19880;DHT22;10102;50.828;4.416;2024-03-22T11:36:01;14.50;99.90
19880;DHT22;10102;50.828;4.416;2024-03-22T11:40:54;14.00;99.90
19880;DHT22;10102;50.828;4.416;2024-03-22T11:43:21;13.40;99.90
19880;DHT22;10102;50.828;4.416;2024-03-22T11:45:47;13.70;99.90
19880;DHT22;10102;50.828;4.416;2024-03-22T11:48:13;13.70;99.90
19880;DHT22;10102;50.828;4.416;2024-03-22T11:53:05;13.80;99.90
19880;DHT22;10102;50.828;4.416;2024-03-22T11:55:31;14.10;99.90
19880;DHT22;10102;50.828;4.416;2024-03-22T11:57:58;14.20;99.90
19880;DHT22;10102;50.828;4.416;2024-03-22T12:00:24;14.30;99.90
19880;DHT22;10102;50.828;4.416;2024-03-22T12:02:51;14.50;99.90
19880;DHT22;10102;50.828;4.416;2024-03-22T12:05:23;14.90;99.90
19880;DHT22;10102;50.828;4.416;2024-03-22T12:07:51;14.80;99.90
19880;DHT22;10102;50.828;4.416;2024-03-22T12:10:17;14.60;99.90
19880;DHT22;10102;50.828;4.416;2024-03-22T12:12:43;14.60;99.90
19880;DHT22;10102;50.828;4.416;2024-03-22T12:15:09;14.50;99.90
19880;DHT22;10102;50.828;4.416;2024-03-22T12:17:34;14.50;99.90
19880;DHT22;10102;50.828;4.416;2024-03-22T12:20:02;14.40;99.90
19880;DHT22;10102;50.828;4.416;2024-03-22T12:22:29;14.20;99.90
19880;DHT22;10102;50.828;4.416;2024-03-22T12:24:55;14.20;99.90
19880;DHT22;10102;50.828;4.416;2024-03-22T12:27:21;14.10;99.90
19880;DHT22;10102;50.828;4.416;2024-03-22T12:29:46;14.50;99.90
19880;DHT22;10102;50.828;4.416;2024-03-22T12:37:04;14.00;99.90
19880;DHT22;10102;50.828;4.416;2024-03-22T12:39:30;14.00;99.90
19880;DHT22;10102;50.828;4.416;2024-03-22T12:41:57;14.00;99.90
19880;DHT22;10102;50.828;4.416;2024-03-22T12:44:23;13.70;99.90
19880;DHT22;10102;50.828;4.416;2024-03-22T12:46:49;13.70;99.90
19880;DHT22;10102;50.828;4.416;2024-03-22T12:49:17;13.50;99.90
19880;DHT22;10102;50.828;4.416;2024-03-22T12:51:42;14.00;99.90
19880;DHT22;10102;50.828;4.416;2024-03-22T12:54:09;14.00;99.90
19880;DHT22;10102;50.828;4.416;2024-03-22T12:59:02;13.70;99.90
19880;DHT22;10102;50.828;4.416;2024-03-22T13:01:28;13.40;99.90
19880;DHT22;10102;50.828;4.416;2024-03-22T13:03:54;13.30;99.90
19880;DHT22;10102;50.828;4.416;2024-03-22T13:06:20;13.70;99.90
19880;DHT22;10102;50.828;4.416;2024-03-22T13:08:46;13.40;99.90
19880;DHT22;10102;50.828;4.416;2024-03-22T13:11:12;14.00;99.90
19880;DHT22;10102;50.828;4.416;2024-03-22T13:13:39;13.70;99.90
19880;DHT22;10102;50.828;4.416;2024-03-22T13:16:05;13.60;99.90
19880;DHT22;10102;50.828;4.416;2024-03-22T13:18:32;13.70;99.90
19880;DHT22;10102;50.828;4.416;2024-03-22T13:20:58;13.90;99.90
19880;DHT22;10102;50.828;4.416;2024-03-22T13:23:24;13.80;99.90
19880;DHT22;10102;50.828;4.416;2024-03-22T13:25:49;13.60;99.90
19880;DHT22;10102;50.828;4.416;2024-03-22T13:28:15;14.30;99.90
19880;DHT22;10102;50.828;4.416;2024-03-22T13:30:45;13.90;99.90
19880;DHT22;10102;50.828;4.416;2024-03-22T13:38:03;14.10;99.90
19880;DHT22;10102;50.828;4.416;2024-03-22T13:40:29;14.00;99.90
19880;DHT22;10102;50.828;4.416;2024-03-22T13:42:55;13.90;99.90
19880;DHT22;10102;50.828;4.416;2024-03-22T13:45:21;13.70;99.90
19880;DHT22;10102;50.828;4.416;2024-03-22T13:47:47;13.70;99.90
19880;DHT22;10102;50.828;4.416;2024-03-22T13:52:39;13.80;99.90
19880;DHT22;10102;50.828;4.416;2024-03-22T13:55:05;13.80;99.90
19880;DHT22;10102;50.828;4.416;2024-03-22T13:57:31;13.80;99.90
19880;DHT22;10102;50.828;4.416;2024-03-22T13:59:58;13.80;99.90
19880;DHT22;10102;50.828;4.416;2024-03-22T14:02:24;13.80;99.90
19880;DHT22;10102;50.828;4.416;2024-03-22T14:04:50;13.60;99.90
19880;DHT22;10102;50.828;4.416;2024-03-22T14:07:15;13.90;99.90
19880;DHT22;10102;50.828;4.416;2024-03-22T14:09:41;14.10;99.90
19880;DHT22;10102;50.828;4.416;2024-03-22T14:12:08;14.00;99.90
19880;DHT22;10102;50.828;4.416;2024-03-22T14:14:34;13.80;99.90
19880;DHT22;10102;50.828;4.416;2024-03-22T14:17:00;13.70;99.90
19880;DHT22;10102;50.828;4.416;2024-03-22T14:19:26;13.90;99.90
19880;DHT22;10102;50.828;4.416;2024-03-22T14:21:52;13.80;99.90
19880;DHT22;10102;50.828;4.416;2024-03-22T14:24:17;13.50;99.90
19880;DHT22;10102;50.828;4.416;2024-03-22T14:26:43;13.30;99.90
19880;DHT22;10102;50.828;4.416;2024-03-22T14:29:12;13.20;99.90
19880;DHT22;10102;50.828;4.416;2024-03-22T14:31:38;13.20;99.90
19880;DHT22;10102;50.828;4.416;2024-03-22T14:34:07;13.50;99.90
19880;DHT22;10102;50.828;4.416;2024-03-22T14:36:33;13.60;99.90
19880;DHT22;10102;50.828;4.416;2024-03-22T14:38:59;13.70;99.90
19880;DHT22;10102;50.828;4.416;2024-03-22T14:41:25;13.50;99.90
19880;DHT22;10102;50.828;4.416;2024-03-22T14:43:51;13.50;99.90
19880;DHT22;10102;50.828;4.416;2024-03-22T14:46:17;13.50;99.90
19880;DHT22;10102;50.828;4.416;2024-03-22T14:48:45;13.60;99.90
19880;DHT22;10102;50.828;4.416;2024-03-22T14:51:11;13.80;99.90
19880;DHT22;10102;50.828;4.416;2024-03-22T14:53:37;13.50;99.90
19880;DHT22;10102;50.828;4.416;2024-03-22T14:56:03;13.60;99.90
19880;DHT22;10102;50.828;4.416;2024-03-22T14:58:30;13.60;99.90
19880;DHT22;10102;50.828;4.416;2024-03-22T15:00:58;13.70;99.90
19880;DHT22;10102;50.828;4.416;2024-03-22T15:03:24;13.10;99.90
19880;DHT22;10102;50.828;4.416;2024-03-22T15:05:51;13.20;99.90
19880;DHT22;10102;50.828;4.416;2024-03-22T15:08:17;13.00;99.90
19880;DHT22;10102;50.828;4.416;2024-03-22T15:10:43;13.40;99.90
19880;DHT22;10102;50.828;4.416;2024-03-22T15:13:09;13.10;99.90
19880;DHT22;10102;50.828;4.416;2024-03-22T15:15:36;12.80;99.90
19880;DHT22;10102;50.828;4.416;2024-03-22T15:18:02;13.00;99.90
19880;DHT22;10102;50.828;4.416;2024-03-22T15:20:28;13.50;99.90
19880;DHT22;10102;50.828;4.416;2024-03-22T15:22:55;13.10;99.90
19880;DHT22;10102;50.828;4.416;2024-03-22T15:25:21;12.90;99.90
19880;DHT22;10102;50.828;4.416;2024-03-22T15:27:46;13.00;99.90
19880;DHT22;10102;50.828;4.416;2024-03-22T15:30:13;12.50;99.90
19880;DHT22;10102;50.828;4.416;2024-03-22T15:32:43;12.40;99.90
19880;DHT22;10102;50.828;4.416;2024-03-22T15:37:35;12.30;99.90
19880;DHT22;10102;50.828;4.416;2024-03-22T15:40:01;12.30;99.90
19880;DHT22;10102;50.828;4.416;2024-03-22T15:42:27;12.40;99.90
19880;DHT22;10102;50.828;4.416;2024-03-22T15:44:53;12.30;99.90
19880;DHT22;10102;50.828;4.416;2024-03-22T15:47:19;12.40;99.90
19880;DHT22;10102;50.828;4.416;2024-03-22T15:52:10;12.40;99.90
19880;DHT22;10102;50.828;4.416;2024-03-22T15:54:36;12.80;99.90
19880;DHT22;10102;50.828;4.416;2024-03-22T15:59:28;12.20;99.90
19880;DHT22;10102;50.828;4.416;2024-03-22T16:04:20;12.60;99.90
19880;DHT22;10102;50.828;4.416;2024-03-22T16:06:47;12.60;99.90
19880;DHT22;10102;50.828;4.416;2024-03-22T16:09:13;12.70;99.90
19880;DHT22;10102;50.828;4.416;2024-03-22T16:14:05;12.50;99.90
19880;DHT22;10102;50.828;4.416;2024-03-22T16:16:31;12.30;99.90
19880;DHT22;10102;50.828;4.416;2024-03-22T16:18:57;12.30;99.90
19880;DHT22;10102;50.828;4.416;2024-03-22T16:21:23;12.20;99.90
19880;DHT22;10102;50.828;4.416;2024-03-22T16:23:48;12.20;99.90
19880;DHT22;10102;50.828;4.416;2024-03-22T16:26:14;12.00;99.90
19880;DHT22;10102;50.828;4.416;2024-03-22T16:31:06;11.90;99.90
19880;DHT22;10102;50.828;4.416;2024-03-22T16:33:31;11.80;99.90
19880;DHT22;10102;50.828;4.416;2024-03-22T16:35:58;12.00;99.90
19880;DHT22;10102;50.828;4.416;2024-03-22T16:38:24;11.80;99.90
19880;DHT22;10102;50.828;4.416;2024-03-22T16:40:50;11.80;99.90
19880;DHT22;10102;50.828;4.416;2024-03-22T16:45:42;12.00;99.90
19880;DHT22;10102;50.828;4.416;2024-03-22T16:48:07;11.80;99.90
19880;DHT22;10102;50.828;4.416;2024-03-22T16:50:33;11.90;99.90
19880;DHT22;10102;50.828;4.416;2024-03-22T16:52:59;11.90;99.90
19880;DHT22;10102;50.828;4.416;2024-03-22T16:55:25;12.10;99.90
19880;DHT22;10102;50.828;4.416;2024-03-22T16:57:51;12.00;99.90
19880;DHT22;10102;50.828;4.416;2024-03-22T17:00:18;12.10;99.90
19880;DHT22;10102;50.828;4.416;2024-03-22T17:02:44;12.00;99.90
19880;DHT22;10102;50.828;4.416;2024-03-22T17:05:11;11.80;99.90
19880;DHT22;10102;50.828;4.416;2024-03-22T17:07:37;11.90;99.90